createdAt,value
2018-06-15T00:00:55.925Z,10.30
2018-06-15T00:03:24.306Z,10.83
2018-06-15T00:05:53.382Z,9.17
2018-06-15T00:08:21.676Z,14.17
2018-06-15T00:10:50.149Z,15.73
2018-06-15T00:13:18.532Z,14.17
2018-06-15T00:15:46.917Z,19.40
2018-06-15T00:18:15.293Z,16.17
2018-06-15T00:20:43.466Z,9.83
2018-06-15T00:23:11.985Z,12.87
2018-06-15T00:25:40.227Z,16.80
2018-06-15T00:28:08.524Z,12.00
2018-06-15T00:30:36.877Z,11.27
2018-06-15T00:33:05.358Z,18.00
2018-06-15T00:35:33.642Z,16.10
2018-06-15T00:38:01.943Z,13.50
2018-06-15T00:40:30.297Z,14.63
2018-06-15T00:42:58.673Z,15.43
2018-06-15T00:45:26.942Z,16.43
2018-06-15T00:47:55.329Z,13.83
2018-06-15T00:50:23.687Z,15.30
2018-06-15T00:52:51.997Z,12.60
2018-06-15T00:55:20.366Z,15.03
2018-06-15T00:57:49.444Z,14.43
2018-06-15T01:00:18.107Z,13.67
2018-06-15T01:02:46.663Z,13.33
2018-06-15T01:05:14.905Z,11.70
2018-06-15T01:07:43.237Z,13.33
2018-06-15T01:10:11.553Z,13.83
2018-06-15T01:12:39.941Z,14.80
2018-06-15T01:15:08.416Z,11.47
2018-06-15T01:17:37.114Z,11.60
2018-06-15T01:20:05.386Z,11.70
2018-06-15T01:22:33.933Z,13.20
2018-06-15T01:25:02.144Z,15.27
2018-06-15T01:27:30.409Z,12.03
2018-06-15T01:29:58.889Z,11.67
2018-06-15T01:32:27.276Z,13.33
2018-06-15T01:34:55.787Z,13.17
2018-06-15T01:37:24.125Z,18.53
2018-06-15T01:39:52.418Z,16.13
2018-06-15T01:42:20.837Z,22.30
2018-06-15T01:44:49.220Z,17.57
2018-06-15T01:47:17.640Z,19.53
2018-06-15T01:49:46.042Z,20.33
2018-06-15T01:52:14.311Z,18.07
2018-06-15T01:54:42.581Z,20.50
2018-06-15T01:57:10.996Z,16.60
2018-06-15T01:59:39.333Z,17.37
2018-06-15T02:02:07.521Z,17.40
2018-06-15T02:04:35.808Z,15.70
2018-06-15T02:07:04.176Z,16.13
2018-06-15T02:09:32.445Z,18.27
2018-06-15T02:12:00.836Z,18.40
2018-06-15T02:14:29.108Z,21.37
2018-06-15T02:16:57.591Z,20.27
2018-06-15T02:19:25.981Z,20.77
2018-06-15T02:21:54.352Z,20.23
2018-06-15T02:24:23.025Z,19.13
2018-06-15T02:26:51.215Z,18.07
2018-06-15T02:29:19.589Z,17.63
2018-06-15T02:31:48.377Z,17.30
2018-06-15T02:34:16.640Z,19.03
2018-06-15T02:36:45.297Z,16.57
2018-06-15T02:39:13.618Z,21.20
2018-06-15T02:41:43.637Z,16.67
2018-06-15T02:44:11.943Z,18.77
2018-06-15T02:46:40.319Z,16.20
2018-06-15T02:49:08.569Z,21.47
2018-06-15T02:51:36.747Z,14.53
2018-06-15T02:54:05.121Z,21.13
2018-06-15T02:56:33.478Z,14.57
2018-06-15T02:59:01.896Z,15.43
2018-06-15T03:01:30.265Z,16.37
2018-06-15T03:03:58.645Z,20.00
2018-06-15T03:06:27.045Z,16.97
2018-06-15T03:08:55.190Z,18.03
2018-06-15T03:11:23.505Z,19.20
2018-06-15T03:13:52.361Z,18.70
2018-06-15T03:16:20.632Z,14.37
2018-06-15T03:18:48.896Z,16.67
2018-06-15T03:21:17.194Z,16.40
2018-06-15T03:23:45.765Z,12.90
2018-06-15T03:26:13.950Z,12.13
2018-06-15T03:28:42.424Z,14.80
2018-06-15T03:31:10.922Z,10.60
2018-06-15T03:33:39.289Z,13.37
2018-06-15T03:36:07.670Z,15.87
2018-06-15T03:38:36.010Z,13.53
2018-06-15T03:41:04.633Z,12.67
2018-06-15T03:43:32.914Z,11.60
2018-06-15T03:46:01.418Z,12.70
2018-06-15T03:48:29.674Z,10.33
2018-06-15T03:50:57.959Z,11.73
2018-06-15T03:53:26.236Z,10.57
2018-06-15T03:55:54.606Z,15.87
2018-06-15T03:58:22.978Z,11.53
2018-06-15T04:00:51.385Z,15.70
2018-06-15T04:03:19.750Z,12.33
2018-06-15T04:05:48.222Z,13.27
2018-06-15T04:08:16.634Z,11.33
2018-06-15T04:10:45.208Z,11.60
2018-06-15T04:13:14.479Z,13.83
2018-06-15T04:15:42.851Z,18.10
2018-06-15T04:18:11.350Z,96.40
2018-06-15T04:20:39.501Z,32.37
2018-06-15T04:23:07.897Z,27.10
2018-06-15T04:25:36.673Z,20.73
2018-06-15T04:28:04.968Z,17.13
2018-06-15T04:30:33.363Z,14.70
2018-06-15T04:33:01.722Z,12.97
2018-06-15T04:35:29.898Z,12.87
2018-06-15T04:37:58.284Z,15.60
2018-06-15T04:40:26.402Z,13.53
2018-06-15T04:42:54.833Z,10.63
2018-06-15T04:45:23.108Z,12.17
2018-06-15T04:47:51.481Z,10.30
2018-06-15T04:50:19.754Z,10.57
2018-06-15T04:52:48.050Z,8.73
2018-06-15T04:55:16.325Z,14.67
2018-06-15T04:57:44.796Z,10.03
2018-06-15T05:00:13.174Z,9.60
2018-06-15T05:02:41.356Z,12.67
2018-06-15T05:05:09.825Z,8.40
2018-06-15T05:07:38.197Z,8.77
2018-06-15T05:10:06.394Z,8.73
2018-06-15T05:12:34.769Z,11.90
2018-06-15T05:15:03.145Z,9.40
2018-06-15T05:17:31.517Z,12.60
2018-06-15T05:19:59.688Z,10.03
2018-06-15T05:22:28.074Z,10.53
2018-06-15T05:24:56.256Z,10.03
2018-06-15T05:27:24.731Z,9.63
2018-06-15T05:29:53.141Z,9.60
2018-06-15T05:32:21.469Z,9.80
2018-06-15T05:34:49.769Z,10.40
2018-06-15T05:37:18.179Z,11.27
2018-06-15T05:39:46.521Z,10.47
2018-06-15T05:42:14.796Z,14.00
2018-06-15T05:44:43.980Z,13.03
2018-06-15T05:47:12.513Z,11.53
2018-06-15T05:49:40.757Z,11.43
2018-06-15T05:52:09.138Z,11.47
2018-06-15T05:54:37.309Z,10.43
2018-06-15T05:57:05.786Z,11.17
2018-06-15T05:59:34.164Z,11.93
2018-06-15T06:02:02.302Z,11.00
2018-06-15T06:04:30.785Z,11.57
2018-06-15T06:06:59.108Z,12.63
2018-06-15T06:09:27.393Z,11.03
2018-06-15T06:11:55.753Z,11.77
2018-06-15T06:14:24.065Z,10.93
2018-06-15T06:16:52.506Z,11.43
2018-06-15T06:19:20.822Z,9.93
2018-06-15T06:21:49.066Z,10.30
2018-06-15T06:24:17.461Z,14.73
2018-06-15T06:26:45.940Z,10.27
2018-06-15T06:29:14.060Z,10.27
2018-06-15T06:31:42.282Z,12.37
2018-06-15T06:34:10.662Z,16.57
2018-06-15T06:36:38.972Z,12.00
2018-06-15T06:39:09.928Z,15.73
2018-06-15T06:41:38.356Z,12.10
2018-06-15T06:44:06.892Z,12.37
2018-06-15T06:46:35.331Z,9.77
2018-06-15T06:49:03.913Z,14.60
2018-06-15T06:51:32.298Z,10.77
2018-06-15T06:54:01.085Z,10.87
2018-06-15T06:56:29.550Z,15.10
2018-06-15T06:58:57.882Z,15.87
2018-06-15T07:01:26.314Z,18.67
2018-06-15T07:03:54.615Z,10.73
2018-06-15T07:06:23.038Z,7.73
2018-06-15T07:08:51.349Z,10.77
2018-06-15T07:11:19.522Z,10.93
2018-06-15T07:13:47.680Z,9.47
2018-06-15T07:16:15.960Z,8.83
2018-06-15T07:18:44.354Z,11.33
2018-06-15T07:21:12.745Z,9.27
2018-06-15T07:23:41.222Z,10.10
2018-06-15T07:26:09.593Z,9.20
2018-06-15T07:28:37.978Z,9.20
2018-06-15T07:31:06.247Z,7.67
2018-06-15T07:33:34.734Z,7.13
2018-06-15T07:36:03.009Z,9.73
2018-06-15T07:38:31.285Z,9.20
2018-06-15T07:40:59.688Z,6.67
2018-06-15T07:43:28.041Z,7.43
2018-06-15T07:45:56.433Z,6.50
2018-06-15T07:48:24.697Z,8.60
2018-06-15T07:50:52.877Z,7.47
2018-06-15T07:53:21.045Z,6.07
2018-06-15T07:55:49.222Z,6.60
2018-06-15T07:58:17.382Z,6.57
2018-06-15T08:00:45.723Z,6.90
2018-06-15T08:03:14.078Z,7.27
2018-06-15T08:05:42.428Z,6.83
2018-06-15T08:08:10.606Z,10.87
2018-06-15T08:10:38.997Z,8.03
2018-06-15T08:13:07.259Z,6.20
2018-06-15T08:15:35.742Z,7.07
2018-06-15T08:18:04.019Z,6.63
2018-06-15T08:20:32.408Z,9.07
2018-06-15T08:23:00.671Z,7.87
2018-06-15T08:25:29.221Z,6.00
2018-06-15T08:27:57.955Z,6.20
2018-06-15T08:30:26.408Z,8.60
2018-06-15T08:32:54.701Z,6.63
2018-06-15T08:35:22.975Z,8.53
2018-06-15T08:37:51.673Z,6.60
2018-06-15T08:40:20.145Z,6.50
2018-06-15T08:42:48.313Z,6.40
2018-06-15T08:45:16.493Z,9.67
2018-06-15T08:47:44.961Z,9.37
2018-06-15T08:50:13.254Z,9.97
2018-06-15T08:52:41.427Z,9.17
2018-06-15T08:55:09.715Z,9.17
2018-06-15T08:57:38.036Z,6.93
2018-06-15T09:00:06.653Z,6.83
2018-06-15T09:02:35.055Z,6.17
2018-06-15T09:05:03.372Z,6.87
2018-06-15T09:07:31.804Z,6.03
2018-06-15T09:10:00.137Z,7.10
2018-06-15T09:12:28.667Z,6.00
2018-06-15T09:14:56.993Z,7.80
2018-06-15T09:17:25.529Z,8.07
2018-06-15T09:19:53.905Z,6.83
2018-06-15T09:22:22.482Z,10.03
2018-06-15T09:24:51.942Z,8.03
2018-06-15T09:27:20.386Z,9.93
2018-06-15T09:29:49.085Z,11.27
2018-06-15T09:32:18.049Z,8.40
2018-06-15T09:34:46.426Z,7.13
2018-06-15T09:37:14.701Z,8.57
2018-06-15T09:39:43.296Z,6.87
2018-06-15T09:42:11.465Z,5.63
2018-06-15T09:44:39.749Z,5.47
2018-06-15T09:47:22.546Z,5.53
2018-06-15T09:49:50.851Z,5.10
2018-06-15T09:52:19.349Z,5.53
2018-06-15T09:54:47.866Z,8.27
2018-06-15T09:57:16.082Z,6.60
2018-06-15T09:59:44.540Z,6.20
2018-06-15T10:02:13.008Z,6.70
2018-06-15T10:04:41.325Z,6.00
2018-06-15T10:07:09.642Z,5.27
2018-06-15T10:09:37.873Z,4.93
2018-06-15T10:12:06.149Z,6.57
2018-06-15T10:14:34.436Z,4.30
2018-06-15T10:17:02.962Z,4.47
2018-06-15T10:19:31.292Z,4.87
2018-06-15T10:21:59.566Z,4.13
2018-06-15T10:24:27.842Z,4.17
2018-06-15T10:26:56.105Z,5.10
2018-06-15T10:29:24.394Z,4.40
2018-06-15T10:31:52.677Z,4.47
2018-06-15T10:34:21.045Z,7.33
2018-06-15T10:36:49.535Z,5.83
2018-06-15T10:39:17.723Z,5.33
2018-06-15T10:41:45.985Z,4.97
2018-06-15T10:44:14.487Z,6.00
2018-06-15T10:46:42.960Z,4.40
2018-06-15T10:49:11.221Z,6.10
2018-06-15T10:51:39.678Z,4.17
2018-06-15T10:54:08.033Z,4.73
2018-06-15T10:56:37.270Z,5.30
2018-06-15T10:59:05.687Z,4.50
2018-06-15T11:01:34.044Z,4.37
2018-06-15T11:04:02.621Z,4.97
2018-06-15T11:06:31.003Z,5.43
2018-06-15T11:08:59.305Z,8.50
2018-06-15T11:11:27.763Z,4.70
2018-06-15T11:13:56.037Z,5.37
2018-06-15T11:16:24.417Z,4.73
2018-06-15T11:18:53.422Z,5.37
2018-06-15T11:21:21.468Z,5.60
2018-06-15T11:23:49.765Z,4.67
2018-06-15T11:26:18.072Z,5.40
2018-06-15T11:28:46.410Z,5.40
2018-06-15T11:31:14.745Z,4.33
2018-06-15T11:33:42.970Z,5.90
2018-06-15T11:36:11.361Z,5.97
2018-06-15T11:38:39.652Z,6.57
2018-06-15T11:41:07.996Z,6.53
2018-06-15T11:43:36.334Z,4.97
2018-06-15T11:46:04.866Z,5.47
2018-06-15T11:48:33.336Z,5.80
2018-06-15T11:51:01.754Z,4.80
2018-06-15T11:53:29.988Z,4.80
2018-06-15T11:55:58.495Z,5.40
2018-06-15T11:58:27.653Z,5.60
2018-06-15T12:00:55.849Z,8.27
2018-06-15T12:03:25.702Z,5.63
2018-06-15T12:05:54.310Z,5.17
2018-06-15T12:08:22.638Z,5.23
2018-06-15T12:10:50.810Z,6.27
2018-06-15T12:13:18.994Z,6.47
2018-06-15T12:15:47.196Z,5.30
2018-06-15T12:18:15.955Z,8.23
2018-06-15T12:20:44.213Z,6.37
2018-06-15T12:23:12.511Z,5.00
2018-06-15T12:25:40.761Z,6.13
2018-06-15T12:28:08.960Z,6.13
2018-06-15T12:30:37.528Z,5.77
2018-06-15T12:33:06.054Z,5.33
2018-06-15T12:35:34.491Z,8.83
2018-06-15T12:38:02.774Z,5.50
2018-06-15T12:40:31.246Z,6.00
2018-06-15T12:42:59.632Z,5.17
2018-06-15T12:45:28.014Z,5.53
2018-06-15T12:47:56.496Z,6.50
2018-06-15T12:50:25.041Z,4.07
2018-06-15T12:52:53.614Z,4.63
2018-06-15T12:55:21.837Z,4.47
2018-06-15T12:57:50.259Z,7.00
2018-06-15T13:00:18.726Z,4.03
2018-06-15T13:02:47.068Z,5.47
2018-06-15T13:05:15.358Z,4.40
2018-06-15T13:07:43.733Z,4.27
2018-06-15T13:10:12.229Z,4.67
2018-06-15T13:12:40.590Z,4.10
2018-06-15T13:15:08.878Z,3.60
2018-06-15T13:17:37.241Z,6.43
2018-06-15T13:20:05.629Z,7.10
2018-06-15T13:22:33.832Z,4.73
2018-06-15T13:25:02.280Z,6.00
2018-06-15T13:27:30.561Z,6.17
2018-06-15T13:29:59.078Z,5.50
2018-06-15T13:32:27.431Z,6.13
2018-06-15T13:34:55.710Z,7.50
2018-06-15T13:37:23.998Z,7.20
2018-06-15T13:39:52.361Z,7.50
2018-06-15T13:42:27.064Z,5.47
2018-06-15T13:44:55.505Z,5.30
2018-06-15T13:47:23.921Z,6.00
2018-06-15T13:49:52.274Z,8.53
2018-06-15T13:52:20.701Z,5.70
2018-06-15T13:54:49.215Z,6.03
2018-06-15T13:57:17.591Z,5.97
2018-06-15T13:59:45.966Z,8.20
2018-06-15T14:02:14.400Z,8.33
2018-06-15T14:04:42.897Z,6.57
2018-06-15T14:07:11.514Z,5.30
2018-06-15T14:09:39.914Z,6.73
2018-06-15T14:12:08.451Z,6.40
2018-06-15T14:14:37.018Z,6.53
2018-06-15T14:17:05.443Z,7.93
2018-06-15T14:19:33.998Z,6.30
2018-06-15T14:22:02.254Z,8.77
2018-06-15T14:24:30.450Z,6.80
2018-06-15T14:26:58.737Z,7.03
2018-06-15T14:29:27.097Z,6.30
2018-06-15T14:31:55.383Z,5.80
2018-06-15T14:34:23.862Z,6.77
2018-06-15T14:36:52.242Z,7.00
2018-06-15T14:39:20.612Z,9.67
2018-06-15T14:41:49.119Z,7.27
2018-06-15T14:44:17.375Z,6.10
2018-06-15T14:46:45.931Z,11.53
2018-06-15T14:49:14.229Z,7.03
2018-06-15T14:51:42.680Z,7.03
2018-06-15T14:54:11.205Z,7.70
2018-06-15T14:56:39.592Z,7.63
2018-06-15T14:59:08.208Z,9.00
2018-06-15T15:01:36.649Z,10.00
2018-06-15T15:04:05.139Z,9.93
2018-06-15T15:06:33.500Z,8.67
2018-06-15T15:09:01.713Z,7.13
2018-06-15T15:11:30.066Z,7.93
2018-06-15T15:13:58.441Z,6.93
2018-06-15T15:16:26.723Z,6.73
2018-06-15T15:18:54.997Z,9.67
2018-06-15T15:21:23.383Z,6.50
2018-06-15T15:23:51.893Z,7.67
2018-06-15T15:26:20.338Z,6.37
2018-06-15T15:28:48.609Z,7.47
2018-06-15T15:31:16.889Z,5.80
2018-06-15T15:33:45.066Z,8.43
2018-06-15T15:36:13.244Z,7.73
2018-06-15T15:38:42.205Z,6.63
2018-06-15T15:41:10.510Z,9.93
2018-06-15T15:43:38.876Z,10.93
2018-06-15T15:46:07.277Z,8.37
2018-06-15T15:48:35.550Z,7.50
2018-06-15T15:51:03.724Z,7.80
2018-06-15T15:53:32.001Z,6.27
2018-06-15T15:56:00.372Z,8.90
2018-06-15T15:58:28.666Z,6.40
2018-06-15T16:00:57.033Z,8.80
2018-06-15T16:03:25.454Z,9.70
2018-06-15T16:05:53.898Z,6.77
2018-06-15T16:08:22.469Z,8.90
2018-06-15T16:10:50.762Z,9.23
2018-06-15T16:13:19.173Z,6.47
2018-06-15T16:15:47.410Z,7.40
2018-06-15T16:18:15.972Z,8.33
2018-06-15T16:20:44.274Z,7.13
2018-06-15T16:23:12.749Z,10.00
2018-06-15T16:25:41.160Z,7.37
2018-06-15T16:28:10.465Z,7.67
2018-06-15T16:30:38.838Z,8.37
2018-06-15T16:33:07.406Z,8.33
2018-06-15T16:35:35.879Z,14.03
2018-06-15T16:38:04.362Z,9.97
2018-06-15T16:40:32.741Z,11.47
2018-06-15T16:43:01.044Z,7.80
2018-06-15T16:45:29.402Z,8.57
2018-06-15T16:47:57.773Z,8.93
2018-06-15T16:50:26.042Z,9.43
2018-06-15T16:52:54.225Z,9.80
2018-06-15T16:55:22.530Z,7.37
2018-06-15T16:57:51.085Z,7.50
2018-06-15T17:00:19.490Z,7.30
2018-06-15T17:02:47.945Z,7.17
2018-06-15T17:05:16.330Z,6.63
2018-06-15T17:07:45.113Z,9.40
2018-06-15T17:10:13.381Z,9.27
2018-06-15T17:12:41.670Z,10.17
2018-06-15T17:15:10.073Z,9.30
2018-06-15T17:17:38.522Z,8.63
2018-06-15T17:20:06.806Z,12.47
2018-06-15T17:22:35.197Z,10.20
2018-06-15T17:25:03.668Z,12.13
2018-06-15T17:27:32.335Z,11.27
2018-06-15T17:30:00.421Z,7.80
2018-06-15T17:32:28.830Z,8.13
2018-06-15T17:34:57.281Z,8.30
2018-06-15T17:37:25.749Z,11.20
2018-06-15T17:39:54.349Z,11.50
2018-06-15T17:42:23.006Z,10.93
2018-06-15T17:44:51.312Z,9.70
2018-06-15T17:47:20.138Z,7.73
2018-06-15T17:49:48.781Z,8.17
2018-06-15T17:52:17.064Z,7.53
2018-06-15T17:54:45.342Z,7.53
2018-06-15T17:57:13.751Z,6.83
2018-06-15T17:59:42.110Z,8.43
2018-06-15T18:02:10.477Z,7.30
2018-06-15T18:04:38.813Z,8.00
2018-06-15T18:07:07.149Z,7.93
2018-06-15T18:09:35.506Z,7.67
2018-06-15T18:12:03.744Z,8.67
2018-06-15T18:14:32.093Z,10.33
2018-06-15T18:17:00.549Z,12.53
2018-06-15T18:19:29.020Z,9.67
2018-06-15T18:21:57.318Z,11.40
2018-06-15T18:24:25.777Z,8.40
2018-06-15T18:26:54.169Z,7.50
2018-06-15T18:29:22.544Z,7.90
2018-06-15T18:31:50.925Z,8.07
2018-06-15T18:34:19.096Z,8.03
2018-06-15T18:36:47.287Z,11.93
2018-06-15T18:39:15.450Z,8.10
2018-06-15T18:41:44.254Z,8.83
2018-06-15T18:44:12.405Z,9.03
2018-06-15T18:46:40.793Z,12.60
2018-06-15T18:49:08.981Z,9.93
2018-06-15T18:51:37.444Z,8.63
2018-06-15T18:54:05.596Z,8.53
2018-06-15T18:56:34.109Z,7.73
2018-06-15T18:59:02.584Z,7.60
2018-06-15T19:01:30.861Z,7.83
2018-06-15T19:03:59.136Z,7.57
2018-06-15T19:06:27.428Z,7.93
2018-06-15T19:08:55.899Z,8.30
2018-06-15T19:11:24.250Z,7.03
2018-06-15T19:13:53.502Z,8.80
2018-06-15T19:16:21.958Z,8.20
2018-06-15T19:18:50.944Z,8.73
2018-06-15T19:21:19.430Z,9.07
2018-06-15T19:23:47.753Z,7.50
2018-06-15T19:26:16.180Z,8.33
2018-06-15T19:28:44.469Z,8.23
2018-06-15T19:31:12.955Z,7.20
2018-06-15T19:33:41.329Z,9.30
2018-06-15T19:36:09.598Z,7.43
2018-06-15T19:38:37.873Z,9.20
2018-06-15T19:41:06.189Z,7.13
2018-06-15T19:43:34.753Z,7.33
2018-06-15T19:46:03.112Z,7.70
2018-06-15T19:48:31.492Z,10.47
2018-06-15T19:50:59.769Z,8.03
2018-06-15T19:53:28.094Z,8.73
2018-06-15T19:55:56.550Z,8.20
2018-06-15T19:58:24.712Z,8.10
2018-06-15T20:00:53.080Z,7.70
2018-06-15T20:03:21.362Z,10.07
2018-06-15T20:05:49.637Z,9.47
2018-06-15T20:08:17.945Z,8.63
2018-06-15T20:10:46.421Z,8.07
2018-06-15T20:13:14.774Z,7.87
2018-06-15T20:15:43.153Z,12.50
2018-06-15T20:18:11.643Z,10.03
2018-06-15T20:20:40.125Z,8.20
2018-06-15T20:23:08.602Z,9.27
2018-06-15T20:25:37.083Z,8.67
2018-06-15T20:28:05.988Z,8.23
2018-06-15T20:30:34.148Z,10.40
2018-06-15T20:33:02.421Z,11.53
2018-06-15T20:35:30.689Z,8.67
2018-06-15T20:37:59.704Z,7.87
2018-06-15T20:40:28.177Z,8.73
2018-06-15T20:42:56.726Z,8.73
2018-06-15T20:45:25.141Z,10.83
2018-06-15T20:47:53.515Z,11.13
2018-06-15T20:50:21.788Z,8.07
2018-06-15T20:52:50.066Z,7.83
2018-06-15T20:55:18.376Z,9.93
2018-06-15T20:57:47.336Z,9.23
2018-06-15T21:00:15.930Z,8.10
2018-06-15T21:02:44.538Z,8.07
2018-06-15T21:05:12.810Z,8.70
2018-06-15T21:07:41.271Z,9.30
2018-06-15T21:10:09.452Z,11.07
2018-06-15T21:12:37.930Z,10.13
2018-06-15T21:15:06.393Z,11.47
2018-06-15T21:17:34.706Z,10.33
2018-06-15T21:20:03.071Z,9.20
2018-06-15T21:22:31.589Z,9.27
2018-06-15T21:24:59.929Z,9.40
2018-06-15T21:27:28.305Z,11.87
2018-06-15T21:29:56.675Z,9.23
2018-06-15T21:32:24.975Z,9.73
2018-06-15T21:34:53.442Z,8.53
2018-06-15T21:37:21.718Z,10.33
2018-06-15T21:39:50.021Z,8.90
2018-06-15T21:42:18.577Z,8.73
2018-06-15T21:44:46.853Z,9.73
2018-06-15T21:47:15.235Z,9.03
2018-06-15T21:49:43.637Z,9.00
2018-06-15T21:52:11.918Z,9.93
2018-06-15T21:54:40.379Z,9.83
2018-06-15T21:57:08.851Z,10.23
2018-06-15T21:59:37.222Z,9.27
2018-06-15T22:02:05.919Z,9.37
2018-06-15T22:04:34.177Z,8.53
2018-06-15T22:07:02.474Z,12.73
2018-06-15T22:09:30.854Z,8.43
2018-06-15T22:11:59.186Z,8.43
2018-06-15T22:14:27.520Z,10.03
2018-06-15T22:16:56.112Z,8.50
2018-06-15T22:19:24.634Z,10.23
2018-06-15T22:21:53.543Z,9.10
2018-06-15T22:24:22.442Z,10.30
2018-06-15T22:26:50.952Z,9.13
2018-06-15T22:29:19.237Z,8.53
2018-06-15T22:31:47.901Z,8.97
2018-06-15T22:34:16.277Z,10.53
2018-06-15T22:36:44.548Z,16.20
2018-06-15T22:39:14.221Z,8.83
2018-06-15T22:41:42.704Z,8.97
2018-06-15T22:44:11.949Z,9.63
2018-06-15T22:46:41.081Z,8.50
2018-06-15T22:49:10.086Z,10.97
2018-06-15T22:51:38.785Z,10.43
2018-06-15T22:54:07.293Z,9.90
2018-06-15T22:56:35.807Z,9.30
2018-06-15T22:59:04.153Z,11.93
2018-06-15T23:01:32.754Z,10.00
2018-06-15T23:04:01.341Z,10.17
2018-06-15T23:06:29.717Z,10.40
2018-06-15T23:08:58.185Z,10.10
2018-06-15T23:11:26.458Z,9.13
2018-06-15T23:13:54.943Z,13.43
2018-06-15T23:16:23.343Z,11.30
2018-06-15T23:18:51.714Z,10.70
2018-06-15T23:21:20.184Z,10.43
2018-06-15T23:23:48.687Z,9.83
2018-06-15T23:26:17.824Z,11.47
2018-06-15T23:28:46.236Z,10.90
2018-06-15T23:31:14.527Z,10.63
2018-06-15T23:33:43.842Z,12.57
2018-06-15T23:36:13.403Z,11.23
2018-06-15T23:38:41.819Z,12.93
2018-06-15T23:41:10.301Z,12.33
2018-06-15T23:43:38.568Z,12.23
2018-06-15T23:46:07.084Z,14.27
2018-06-15T23:48:35.658Z,13.40
2018-06-15T23:51:04.787Z,12.53
2018-06-15T23:53:34.245Z,12.70
2018-06-15T23:56:02.601Z,14.23
2018-06-15T23:58:30.903Z,15.90
